This is the latest recevied weather packets stored in our database for station/object W8CEN. If no packets are shown the sender has not sent any weather packets the latest 10 day(s).
| Time | Temp. | Humidity | Pressure | Rain* | Wind** | Luminosity | Snow |
|---|---|---|---|---|---|---|---|
| 1777487544 | 9.44° C | 93% | 989.3 hPa | 0 mm | - | 67 W/m² | - |
| 1777487241 | 9.44° C | 94% | 989.1 hPa | 0 mm | - | 90 W/m² | - |
| 1777486937 | 9.44° C | 93% | 989.2 hPa | 0 mm | - | 74 W/m² | - |
| 1777486633 | 9.44° C | 93% | 989.4 hPa | 0 mm | - | 86 W/m² | - |
| 1777486331 | 10° C | 92% | 989.4 hPa | 0 mm | - | 92 W/m² | - |
| 1777486028 | 10° C | 93% | 989.1 hPa | 0 mm | - | 144 W/m² | - |
| 1777485725 | 10° C | 92% | 989.2 hPa | 0 mm | - | 167 W/m² | - |
| 1777485420 | 10° C | 93% | 989.2 hPa | 0 mm | - | 181 W/m² | - |
| 1777485116 | 10° C | 93% | 989.4 hPa | 0 mm | - | 122 W/m² | - |
| 1777484814 | 10° C | 94% | 989.1 hPa | 0 mm | - | 215 W/m² | - |
| 1777484510 | 9.44° C | 93% | 989.3 hPa | 0 mm | - | 212 W/m² | - |
| 1777484207 | 10° C | 94% | 989.6 hPa | 0 mm | - | 96 W/m² | - |
| 1777483903 | 9.44° C | 93% | 989.5 hPa | 0 mm | - | 198 W/m² | - |
| 1777483599 | 10° C | 94% | 989.4 hPa | 0 mm | - | 184 W/m² | - |
| 1777483294 | 9.44° C | 93% | 989.4 hPa | 0 mm | - | 204 W/m² | - |
| 1777482991 | 9.44° C | 93% | 989.5 hPa | 0 mm | - | 155 W/m² | - |
| 1777482687 | 9.44° C | 92% | 989.7 hPa | 0 mm | - | 123 W/m² | - |
| 1777482384 | 9.44° C | 92% | 989.7 hPa | 0 mm | - | 95 W/m² | - |
| 1777482081 | 10° C | 90% | 989.4 hPa | 0 mm | - | 83 W/m² | - |
| 1777481780 | 10° C | 90% | 989.6 hPa | 0 mm | - | 76 W/m² | - |
| 1777481476 | 10° C | 88% | 989.7 hPa | 0 mm | - | 64 W/m² | - |
| 1777481172 | 10° C | 88% | 989.6 hPa | 0 mm | - | 43 W/m² | - |
| 1777480869 | 10.56° C | 87% | 989.8 hPa | 0 mm | - | 52 W/m² | - |
| 1777480566 | 10.56° C | 87% | 989.7 hPa | 0 mm | - | 57 W/m² | - |
| 1777480262 | 10.56° C | 87% | 989.7 hPa | 0 mm | - | 50 W/m² | - |
* Rain latest hour (hover to see other rain measurements)
** Current wind speed in m/s (hover to see current wind gust speed)